createdAt,value
2017-07-12T00:02:25.356Z,100337
2017-07-12T00:04:55.865Z,100332
2017-07-12T00:07:25.723Z,100324
2017-07-12T00:09:55.985Z,100330
2017-07-12T00:12:25.812Z,100325
2017-07-12T00:14:56.211Z,100314
2017-07-12T00:17:26.050Z,100317
2017-07-12T00:19:56.268Z,100310
2017-07-12T00:22:26.146Z,100299
2017-07-12T00:24:56.394Z,100287
2017-07-12T00:27:26.261Z,100288
2017-07-12T00:29:56.522Z,100293
2017-07-12T00:32:26.394Z,100299
2017-07-12T00:34:56.268Z,100301
2017-07-12T00:37:26.469Z,100300
2017-07-12T00:39:56.326Z,100299
2017-07-12T00:42:26.216Z,100297
2017-07-12T00:44:56.409Z,100297
2017-07-12T00:47:26.253Z,100294
2017-07-12T00:49:56.097Z,100288
2017-07-12T00:52:26.355Z,100292
2017-07-12T00:54:56.237Z,100288
2017-07-12T00:57:26.487Z,100286
2017-07-12T00:59:56.347Z,100278
2017-07-12T01:02:26.205Z,100275
2017-07-12T01:04:56.545Z,100273
2017-07-12T01:07:26.385Z,100219
2017-07-12T01:09:56.581Z,100261
2017-07-12T01:12:26.434Z,100257
2017-07-12T01:14:56.288Z,100244
2017-07-12T01:17:26.489Z,100240
2017-07-12T01:19:56.324Z,100245
2017-07-12T01:22:26.197Z,100242
2017-07-12T01:24:56.584Z,100245
2017-07-12T01:27:26.483Z,100238
2017-07-12T01:29:56.702Z,100227
2017-07-12T01:32:26.550Z,100223
2017-07-12T01:34:56.412Z,100218
2017-07-12T01:37:26.642Z,100216
2017-07-12T01:39:56.505Z,100218
2017-07-12T01:42:26.362Z,100221
2017-07-12T01:44:56.622Z,100213
2017-07-12T01:47:26.463Z,100207
2017-07-12T01:49:56.352Z,100203
2017-07-12T01:52:26.649Z,100210
2017-07-12T01:54:56.509Z,100206
2017-07-12T01:57:26.383Z,100204
2017-07-12T01:59:56.683Z,100207
2017-07-12T02:02:26.547Z,100199
2017-07-12T02:04:56.825Z,100203
2017-07-12T02:07:26.680Z,100195
2017-07-12T02:09:56.966Z,100198
2017-07-12T02:12:26.827Z,100188
2017-07-12T02:14:57.092Z,100195
2017-07-12T02:17:26.968Z,100198
2017-07-12T02:19:57.337Z,100194
2017-07-12T02:22:27.204Z,100203
2017-07-12T02:24:57.471Z,100196
2017-07-12T02:27:27.328Z,100198
2017-07-12T02:29:57.191Z,100181
2017-07-12T02:32:27.548Z,100180
2017-07-12T02:34:57.402Z,100176
2017-07-12T02:37:27.635Z,100171
2017-07-12T02:39:57.490Z,100175
2017-07-12T02:42:27.359Z,100177
2017-07-12T02:44:57.599Z,100177
2017-07-12T02:47:27.474Z,100178
2017-07-12T02:49:57.361Z,100171
2017-07-12T02:52:27.654Z,100173
2017-07-12T02:54:57.550Z,100168
2017-07-12T02:57:27.875Z,100164
2017-07-12T02:59:57.744Z,100164
2017-07-12T03:02:28.013Z,100163
2017-07-12T03:04:57.840Z,100162
2017-07-12T03:07:28.155Z,100159
2017-07-12T03:09:58.002Z,100164
2017-07-12T03:12:28.279Z,100163
2017-07-12T03:14:58.161Z,100159
2017-07-12T03:17:28.401Z,100165
2017-07-12T03:19:58.241Z,100167
2017-07-12T03:22:28.439Z,100172
2017-07-12T03:24:58.284Z,100174
2017-07-12T03:27:28.189Z,100181
2017-07-12T03:29:58.387Z,100181
2017-07-12T03:32:28.235Z,100179
2017-07-12T03:34:58.533Z,100172
2017-07-12T03:37:28.386Z,100176
2017-07-12T03:39:58.239Z,100176
2017-07-12T03:42:28.544Z,100172
2017-07-12T03:44:58.377Z,100175
2017-07-12T03:47:28.218Z,100179
2017-07-12T03:49:58.517Z,100179
2017-07-12T03:52:28.386Z,100174
2017-07-12T03:54:58.270Z,100176
2017-07-12T03:57:28.594Z,100183
2017-07-12T03:59:58.452Z,100176
2017-07-12T04:02:28.318Z,100172
2017-07-12T04:04:58.570Z,100172
2017-07-12T04:07:28.450Z,100173
2017-07-12T04:09:58.337Z,100164
2017-07-12T04:12:28.565Z,100163
2017-07-12T04:14:58.414Z,100155
2017-07-12T04:17:28.267Z,100163
2017-07-12T04:19:58.519Z,100154
2017-07-12T04:22:28.548Z,100151
2017-07-12T04:24:58.377Z,100149
2017-07-12T04:27:28.659Z,100143
2017-07-12T04:29:58.515Z,100134
2017-07-12T04:32:28.392Z,100140
2017-07-12T04:34:58.697Z,100138
2017-07-12T04:37:28.560Z,100130
2017-07-12T04:39:58.771Z,100135
2017-07-12T04:42:28.619Z,100134
2017-07-12T04:44:58.873Z,100132
2017-07-12T04:47:28.728Z,100128
2017-07-12T04:49:59.116Z,100122
2017-07-12T04:52:28.968Z,100121
2017-07-12T04:54:59.366Z,100109
2017-07-12T04:57:29.341Z,100115
2017-07-12T04:59:59.614Z,100111
2017-07-12T05:02:29.568Z,100108
2017-07-12T05:04:59.775Z,100107
2017-07-12T05:07:29.622Z,100112
2017-07-12T05:09:59.855Z,100107
2017-07-12T05:12:29.728Z,100114
2017-07-12T05:14:59.989Z,100102
2017-07-12T05:17:29.973Z,100114
2017-07-12T05:20:00.237Z,100115
2017-07-12T05:22:30.150Z,100118
2017-07-12T05:25:00.533Z,100110
2017-07-12T05:27:30.370Z,100121
2017-07-12T05:30:00.584Z,100111
2017-07-12T05:32:30.443Z,100108
2017-07-12T05:35:00.313Z,100116
2017-07-12T05:37:30.527Z,100108
2017-07-12T05:40:00.381Z,100114
2017-07-12T05:42:30.238Z,100118
2017-07-12T05:45:00.559Z,100112
2017-07-12T05:47:30.411Z,100108
2017-07-12T05:50:00.391Z,100108
2017-07-12T05:52:30.637Z,100103
2017-07-12T05:55:00.494Z,100105
2017-07-12T05:57:30.365Z,100096
2017-07-12T06:00:00.571Z,100098
2017-07-12T06:02:30.410Z,100094
2017-07-12T06:05:00.286Z,100095
2017-07-12T06:07:30.533Z,100092
2017-07-12T06:10:00.510Z,100082
2017-07-12T06:12:30.375Z,100083
2017-07-12T06:15:00.563Z,100079
2017-07-12T06:17:30.389Z,100085
2017-07-12T06:20:00.267Z,100081
2017-07-12T06:22:30.515Z,100079
2017-07-12T06:25:00.367Z,100073
2017-07-12T06:27:30.247Z,100070
2017-07-12T06:30:00.452Z,100067
2017-07-12T06:32:30.334Z,100077
2017-07-12T06:35:00.185Z,100061
2017-07-12T06:37:30.435Z,100062
2017-07-12T06:40:00.297Z,100052
2017-07-12T06:42:30.540Z,100052
2017-07-12T06:45:00.405Z,100048
2017-07-12T06:47:30.281Z,100053
2017-07-12T06:50:00.579Z,100052
2017-07-12T06:52:30.435Z,100053
2017-07-12T06:55:00.828Z,100042
2017-07-12T06:57:30.676Z,100042
2017-07-12T07:00:01.070Z,100041
2017-07-12T07:02:30.927Z,100031
2017-07-12T07:05:01.277Z,100041
2017-07-12T07:07:31.138Z,100032
2017-07-12T07:10:01.330Z,100031
2017-07-12T07:12:31.188Z,100029
2017-07-12T07:15:01.464Z,100030
2017-07-12T07:17:31.320Z,100033
2017-07-12T07:20:01.624Z,100024
2017-07-12T07:22:31.472Z,100027
2017-07-12T07:25:01.364Z,100022
2017-07-12T07:27:31.676Z,100020
2017-07-12T07:30:01.608Z,100020
2017-07-12T07:32:31.891Z,100017
2017-07-12T07:35:01.736Z,100016
2017-07-12T07:37:31.972Z,100016
2017-07-12T07:40:01.836Z,100006
2017-07-12T07:42:32.158Z,100011
2017-07-12T07:45:02.012Z,100004
2017-07-12T07:47:32.300Z,100001
2017-07-12T07:50:02.182Z,99996
2017-07-12T07:52:32.433Z,100003
2017-07-12T07:55:02.291Z,100000
2017-07-12T07:57:32.650Z,99991
2017-07-12T08:00:02.467Z,99985
2017-07-12T08:02:32.375Z,99988
2017-07-12T08:05:02.799Z,99982
2017-07-12T08:07:32.658Z,99981
2017-07-12T08:10:02.947Z,99973
2017-07-12T08:12:32.835Z,99969
2017-07-12T08:15:03.048Z,99977
2017-07-12T08:17:32.891Z,99975
2017-07-12T08:20:03.057Z,99980
2017-07-12T08:22:32.934Z,99976
2017-07-12T08:25:03.153Z,99978
2017-07-12T08:27:33.030Z,99972
2017-07-12T08:30:03.339Z,99980
2017-07-12T08:32:33.270Z,99970
2017-07-12T08:35:03.527Z,99967
2017-07-12T08:37:33.365Z,99968
2017-07-12T08:40:03.254Z,99972
2017-07-12T08:42:33.485Z,99966
2017-07-12T08:45:03.332Z,99962
2017-07-12T08:47:33.180Z,99958
2017-07-12T08:50:03.459Z,99963
2017-07-12T08:52:33.335Z,99958
2017-07-12T08:55:03.652Z,99962
2017-07-12T08:57:33.517Z,99960
2017-07-12T09:00:03.907Z,99964
2017-07-12T09:02:33.773Z,99963
2017-07-12T09:05:04.138Z,99959
2017-07-12T09:07:41.045Z,99955
2017-07-12T09:10:11.600Z,99954
2017-07-12T09:12:42.099Z,99963
2017-07-12T09:15:12.352Z,99961
2017-07-12T09:17:42.206Z,99956
2017-07-12T09:20:12.427Z,99954
2017-07-12T09:22:42.321Z,99962
2017-07-12T09:35:12.434Z,99939
2017-07-12T09:37:42.321Z,99935
2017-07-12T09:40:12.550Z,99935
2017-07-12T09:42:42.406Z,99935
2017-07-12T09:45:12.335Z,99931
2017-07-12T09:47:42.595Z,99936
2017-07-12T09:50:12.442Z,99931
2017-07-12T09:52:42.296Z,99928
2017-07-12T09:55:12.554Z,99923
2017-07-12T09:57:42.409Z,99924
2017-07-12T10:00:12.282Z,99921
2017-07-12T10:02:42.476Z,99926
2017-07-12T10:05:12.339Z,99918
2017-07-12T10:07:42.192Z,99923
2017-07-12T10:10:12.422Z,99923
2017-07-12T10:12:42.261Z,99925
2017-07-12T10:15:12.502Z,99921
2017-07-12T10:17:42.446Z,99924
2017-07-12T10:20:12.362Z,99920
2017-07-12T10:22:42.549Z,99917
2017-07-12T10:25:12.441Z,99915
2017-07-12T10:27:42.296Z,99918
2017-07-12T10:30:12.508Z,99929
2017-07-12T10:32:42.437Z,99924
2017-07-12T10:35:12.299Z,99917
2017-07-12T10:37:42.509Z,99924
2017-07-12T10:40:12.355Z,99917
2017-07-12T10:42:42.204Z,99916
2017-07-12T10:45:12.443Z,99920
2017-07-12T10:47:42.453Z,99918
2017-07-12T10:50:12.322Z,99917
2017-07-12T10:52:42.604Z,99907
2017-07-12T10:55:12.444Z,99899
2017-07-12T10:57:42.302Z,99912
2017-07-12T11:00:12.647Z,99905
2017-07-12T11:02:42.522Z,99905
2017-07-12T11:05:12.407Z,99897
2017-07-12T11:07:42.700Z,99900
2017-07-12T11:10:12.601Z,99894
2017-07-12T11:12:43.006Z,99901
2017-07-12T11:15:12.869Z,99884
2017-07-12T11:17:43.090Z,99898
2017-07-12T11:20:12.937Z,99890
2017-07-12T11:22:43.200Z,99893
2017-07-12T11:25:13.078Z,99889
2017-07-12T11:27:43.337Z,99887
2017-07-12T11:30:13.224Z,99881
2017-07-12T11:32:43.469Z,99889
2017-07-12T11:35:13.335Z,99879
2017-07-12T11:37:43.212Z,99890
2017-07-12T11:40:13.516Z,99887
2017-07-12T11:42:43.369Z,99881
2017-07-12T11:45:13.661Z,99885
2017-07-12T11:47:43.537Z,99883
2017-07-12T11:50:13.384Z,99880
2017-07-12T11:52:43.663Z,99879
2017-07-12T11:55:13.537Z,99889
2017-07-12T11:57:43.425Z,99890
2017-07-12T12:00:13.597Z,99890
2017-07-12T12:02:43.496Z,99886
2017-07-12T12:05:13.447Z,99884
2017-07-12T12:07:43.744Z,99887
2017-07-12T12:10:13.607Z,99894
2017-07-12T12:12:43.851Z,99894
2017-07-12T12:15:13.713Z,99895
2017-07-12T12:17:43.984Z,99898
2017-07-12T12:20:13.857Z,99902
2017-07-12T12:22:44.042Z,99899
2017-07-12T12:25:13.890Z,99906
2017-07-12T12:27:44.178Z,99896
2017-07-12T12:30:14.115Z,99902
2017-07-12T12:32:44.311Z,99910
2017-07-12T12:35:14.170Z,99912
2017-07-12T12:37:44.422Z,99912
2017-07-12T12:40:14.303Z,99910
2017-07-12T12:42:44.532Z,99912
2017-07-12T12:45:14.381Z,99917
2017-07-12T12:47:44.242Z,99913
2017-07-12T12:50:14.494Z,99926
2017-07-12T12:52:44.334Z,99922
2017-07-12T12:55:14.204Z,99926
2017-07-12T12:57:44.461Z,99921
2017-07-12T13:00:14.290Z,99918
2017-07-12T13:02:44.491Z,99925
2017-07-12T13:05:20.037Z,99925
2017-07-12T13:07:50.349Z,99925
2017-07-12T13:10:20.197Z,99929
2017-07-12T13:12:50.495Z,99932
2017-07-12T13:15:20.358Z,99933
2017-07-12T13:17:50.582Z,99936
2017-07-12T13:20:20.421Z,99933
2017-07-12T13:22:50.296Z,99941
2017-07-12T13:25:20.541Z,99948
2017-07-12T13:27:50.403Z,99949
2017-07-12T13:30:20.310Z,99945
2017-07-12T13:32:50.592Z,99956
2017-07-12T13:35:20.422Z,99950
2017-07-12T13:37:50.368Z,99965
2017-07-12T13:40:20.693Z,99956
2017-07-12T13:42:50.550Z,99963
2017-07-12T13:45:20.428Z,99959
2017-07-12T13:47:50.772Z,99968
2017-07-12T13:50:20.628Z,99963
2017-07-12T13:52:50.937Z,99968
2017-07-12T13:55:20.812Z,99964
2017-07-12T13:57:51.027Z,99974
2017-07-12T14:00:20.892Z,99971
2017-07-12T14:02:51.082Z,99976
2017-07-12T14:05:20.942Z,99985
2017-07-12T14:07:51.151Z,99994
2017-07-12T14:10:21.012Z,99989
2017-07-12T14:12:51.200Z,100008
2017-07-12T14:15:21.069Z,99997
2017-07-12T14:17:51.358Z,99998
2017-07-12T14:20:21.218Z,100002
2017-07-12T14:22:51.438Z,100000
2017-07-12T14:25:21.362Z,100007
2017-07-12T14:27:51.553Z,100011
2017-07-12T14:30:21.421Z,100008
2017-07-12T14:32:51.286Z,100015
2017-07-12T14:35:21.619Z,100030
2017-07-12T14:37:51.645Z,100030
2017-07-12T14:40:21.977Z,100033
2017-07-12T14:42:51.837Z,100038
2017-07-12T14:45:22.890Z,100035
2017-07-12T14:47:52.785Z,100045
2017-07-12T14:50:23.033Z,100044
2017-07-12T14:52:52.935Z,100055
2017-07-12T14:55:23.157Z,100049
2017-07-12T14:57:53.054Z,100047
2017-07-12T15:00:23.265Z,100052
2017-07-12T15:02:53.099Z,100057
2017-07-12T15:05:23.323Z,100065
2017-07-12T15:07:53.175Z,100070
2017-07-12T15:10:23.413Z,100070
2017-07-12T15:12:53.257Z,100077
2017-07-12T15:15:23.519Z,100070
2017-07-12T15:17:53.368Z,100081
2017-07-12T15:20:23.240Z,100083
2017-07-12T15:22:53.459Z,100097
2017-07-12T15:25:23.309Z,100102
2017-07-12T15:27:53.677Z,100101
2017-07-12T15:30:23.541Z,100105
2017-07-12T15:32:53.415Z,100111
2017-07-12T15:35:23.611Z,100120
2017-07-12T15:37:53.479Z,100129
2017-07-12T15:40:23.344Z,100128
2017-07-12T15:42:53.697Z,100127
2017-07-12T15:45:23.524Z,100143
2017-07-12T15:47:53.450Z,100144
2017-07-12T15:50:23.755Z,100158
2017-07-12T15:52:53.613Z,100153
2017-07-12T15:55:23.867Z,100180
2017-07-12T15:57:53.756Z,100173
2017-07-12T16:00:24.170Z,100189
2017-07-12T16:02:54.077Z,100192
2017-07-12T16:05:24.360Z,100187
2017-07-12T16:07:54.217Z,100199
2017-07-12T16:10:24.481Z,100199
2017-07-12T16:12:54.382Z,100204
2017-07-12T16:15:24.815Z,100190
2017-07-12T16:17:54.702Z,100192
2017-07-12T16:20:24.926Z,100201
2017-07-12T16:22:54.846Z,100209
2017-07-12T16:25:25.191Z,100210
2017-07-12T16:27:55.033Z,100221
2017-07-12T16:30:25.318Z,100230
2017-07-12T16:32:55.175Z,100233
2017-07-12T16:35:25.454Z,100238
2017-07-12T16:37:55.427Z,100247
2017-07-12T16:40:25.715Z,100261
2017-07-12T16:42:55.630Z,100261
2017-07-12T16:45:25.966Z,100262
2017-07-12T16:47:55.944Z,100266
2017-07-12T16:50:26.278Z,100281
2017-07-12T16:52:56.123Z,100280
2017-07-12T16:55:26.575Z,100288
2017-07-12T16:57:56.435Z,100288
2017-07-12T17:00:26.639Z,100289
2017-07-12T17:02:56.491Z,100290
2017-07-12T17:05:26.441Z,100300
2017-07-12T17:07:56.633Z,100315
2017-07-12T17:10:26.506Z,100303
2017-07-12T17:12:56.382Z,100309
2017-07-12T17:15:26.623Z,100309
2017-07-12T17:17:56.515Z,100314
2017-07-12T17:20:26.399Z,100316
2017-07-12T17:22:56.620Z,100308
2017-07-12T17:25:26.537Z,100321
2017-07-12T17:27:56.431Z,100318
2017-07-12T17:30:26.782Z,100323
2017-07-12T17:32:56.657Z,100318
2017-07-12T17:35:26.983Z,100333
2017-07-12T17:37:56.850Z,100333
2017-07-12T17:40:27.095Z,100346
2017-07-12T17:42:56.980Z,100346
2017-07-12T17:45:27.221Z,100352
2017-07-12T17:47:57.135Z,100358
2017-07-12T17:50:27.387Z,100364
2017-07-12T17:52:57.281Z,100356
2017-07-12T17:55:27.539Z,100370
2017-07-12T17:57:57.411Z,100358
2017-07-12T18:00:27.317Z,100366
2017-07-12T18:02:57.551Z,100379
2017-07-12T18:05:27.432Z,100375
2017-07-12T18:07:57.338Z,100377
2017-07-12T18:10:27.617Z,100383
2017-07-12T18:12:58.280Z,100375
2017-07-12T18:15:28.569Z,100389
2017-07-12T18:17:58.446Z,100393
2017-07-12T18:20:28.792Z,100398
2017-07-12T18:22:58.701Z,100303
2017-07-12T18:25:28.939Z,100414
2017-07-12T18:27:58.831Z,100420
2017-07-12T18:30:29.287Z,100426
2017-07-12T18:32:59.179Z,100435
2017-07-12T18:35:29.455Z,100432
2017-07-12T18:37:59.378Z,100446
2017-07-12T18:40:29.596Z,100459
2017-07-12T18:42:59.507Z,100462
2017-07-12T18:45:29.402Z,100466
2017-07-12T18:47:59.684Z,100464
2017-07-12T18:50:29.563Z,100476
2017-07-12T18:52:59.869Z,100479
2017-07-12T18:55:30.010Z,100492
2017-07-12T18:58:00.289Z,100475
2017-07-12T19:00:30.185Z,100493
2017-07-12T19:03:00.523Z,100501
2017-07-12T19:05:30.389Z,100506
2017-07-12T19:08:00.598Z,100501
2017-07-12T19:10:30.511Z,100518
2017-07-12T19:13:00.421Z,100521
2017-07-12T19:15:30.637Z,100530
2017-07-12T19:18:00.540Z,100533
2017-07-12T19:20:30.445Z,100532
2017-07-12T19:23:00.675Z,100544
2017-07-12T19:25:30.604Z,100553
2017-07-12T19:28:00.898Z,100559
2017-07-12T19:30:30.849Z,100568
2017-07-12T19:33:01.089Z,100574
2017-07-12T19:35:30.960Z,100577
2017-07-12T19:38:01.187Z,100588
2017-07-12T19:40:31.045Z,100599
2017-07-12T19:43:01.361Z,100598
2017-07-12T19:45:31.224Z,100605
2017-07-12T19:48:01.531Z,100610
2017-07-12T19:50:31.483Z,100615
2017-07-12T19:53:01.384Z,100623
2017-07-12T19:55:31.713Z,100619
2017-07-12T19:58:01.594Z,100633
2017-07-12T20:00:31.813Z,100650
2017-07-12T20:03:01.702Z,100641
2017-07-12T20:05:31.943Z,100645
2017-07-12T20:08:01.829Z,100649
2017-07-12T20:10:32.274Z,100659
2017-07-12T20:13:02.152Z,100659
2017-07-12T20:15:32.405Z,100665
2017-07-12T20:18:02.272Z,100667
2017-07-12T20:20:32.498Z,100666
2017-07-12T20:23:02.359Z,100664
2017-07-12T20:25:32.238Z,100672
2017-07-12T20:28:03.345Z,100678
2017-07-12T20:30:33.254Z,100678
2017-07-12T20:33:03.477Z,100681
2017-07-12T20:35:33.381Z,100689
2017-07-12T20:38:03.299Z,100698
2017-07-12T20:40:33.580Z,100706
2017-07-12T20:43:03.465Z,100700
2017-07-12T20:45:33.380Z,100713
2017-07-12T20:48:03.857Z,100713
2017-07-12T20:50:33.880Z,100705
2017-07-12T20:53:04.267Z,100717
2017-07-12T20:55:34.145Z,100716
2017-07-12T20:58:04.393Z,100716
2017-07-12T21:00:34.273Z,100723
2017-07-12T21:03:04.473Z,100727
2017-07-12T21:05:34.473Z,100729
2017-07-12T21:08:04.354Z,100743
2017-07-12T21:10:34.547Z,100738
2017-07-12T21:13:04.488Z,100744
2017-07-12T21:15:34.405Z,100747
2017-07-12T21:18:04.640Z,100747
2017-07-12T21:20:34.517Z,100746
2017-07-12T21:23:04.382Z,100759
2017-07-12T21:25:34.572Z,100763
2017-07-12T21:28:04.440Z,100765
2017-07-12T21:30:34.299Z,100772
2017-07-12T21:33:04.575Z,100762
2017-07-12T21:35:34.425Z,100764
2017-07-12T21:38:04.323Z,100767
2017-07-12T21:40:34.581Z,100779
2017-07-12T21:43:04.508Z,100776
2017-07-12T21:45:34.380Z,100778
2017-07-12T21:48:04.607Z,100773
2017-07-12T21:50:34.454Z,100783
2017-07-12T21:53:04.496Z,100784
2017-07-12T21:55:52.403Z,100791
2017-07-12T21:58:39.939Z,100797
2017-07-12T22:01:27.781Z,100792
2017-07-12T22:04:15.264Z,100795
2017-07-12T22:07:03.107Z,100807
2017-07-12T22:09:50.770Z,100812
2017-07-12T22:12:38.574Z,100816
2017-07-12T22:15:25.999Z,100821
2017-07-12T22:18:13.830Z,100828
2017-07-12T22:21:01.150Z,100822
2017-07-12T22:23:49.100Z,100825
2017-07-12T22:26:36.698Z,100825
2017-07-12T22:29:24.712Z,100838
2017-07-12T22:32:12.210Z,100843
2017-07-12T22:34:59.942Z,100857
2017-07-12T22:37:35.597Z,100861
2017-07-12T22:40:11.610Z,100864
2017-07-12T22:42:46.985Z,100867
2017-07-12T22:45:17.283Z,100874
2017-07-12T22:47:47.127Z,100873
2017-07-12T22:50:17.318Z,100873
2017-07-12T22:52:47.158Z,100887
2017-07-12T22:55:17.387Z,100888
2017-07-12T22:57:47.250Z,100890
2017-07-12T23:00:17.468Z,100901
2017-07-12T23:02:47.342Z,100898
2017-07-12T23:05:17.209Z,100898
2017-07-12T23:07:47.417Z,100915
2017-07-12T23:10:17.285Z,100897
2017-07-12T23:12:47.678Z,100899
2017-07-12T23:15:17.539Z,100899
2017-07-12T23:17:47.434Z,100906
2017-07-12T23:20:17.697Z,100909
2017-07-12T23:22:47.542Z,100921
2017-07-12T23:25:17.397Z,100914
2017-07-12T23:27:47.588Z,100921
2017-07-12T23:30:17.432Z,100924
2017-07-12T23:32:47.329Z,100924
2017-07-12T23:35:17.721Z,100918
2017-07-12T23:37:47.574Z,100922
2017-07-12T23:40:17.768Z,100923
2017-07-12T23:42:47.616Z,100925
2017-07-12T23:45:17.838Z,100921
2017-07-12T23:47:47.731Z,100928
2017-07-12T23:50:18.006Z,100928
2017-07-12T23:52:47.869Z,100936
2017-07-12T23:55:18.132Z,100933
2017-07-12T23:57:48.005Z,100934
